Time;durP1;ratioP1;P1;durP2;ratioP2;P2;SDS_P1;SDS_P2;PMS_P1;PMS_P2;Temp;Humidity;BMP_temperature;BMP_pressure;BME280_temperature;BME280_humidity;BME280_pressure;Samples;Min_cycle;Max_cycle;Signal;HPM_P1;HPM_P2
2021/03/26 00:01:04;;;;;;;;;;;6.80;73.40;;;;;;4995554;28;20149;-53
2021/03/26 00:03:32;;;;;;;16.15;6.70;;;6.80;73.50;;;;;;4995062;28;19953;-52
2021/03/26 00:06:05;;;;;;;13.07;7.28;;;6.70;73.60;;;;;;4993680;28;20041;-52
2021/03/26 00:08:32;;;;;;;11.40;6.63;;;6.70;73.70;;;;;;4983373;28;20050;-51
2021/03/26 00:10:58;;;;;;;16.52;7.57;;;6.70;74.10;;;;;;4997210;28;20553;-51
2021/03/26 00:13:23;;;;;;;14.90;6.50;;;6.70;74.30;;;;;;4996483;28;20046;-53
2021/03/26 00:15:50;;;;;;;18.40;6.88;;;6.70;74.40;;;;;;4995993;28;20030;-52
2021/03/26 00:18:16;;;;;;;12.43;6.53;;;6.70;74.50;;;;;;4985386;28;20046;-51
2021/03/26 00:20:42;;;;;;;14.98;6.30;;;6.70;74.70;;;;;;4993361;28;20491;-50
2021/03/26 00:23:08;;;;;;;15.90;6.57;;;6.70;74.60;;;;;;4993424;28;20046;-50
2021/03/26 00:25:35;;;;;;;14.50;6.00;;;6.60;74.60;;;;;;4994017;28;20137;-52
2021/03/26 00:28:03;;;;;;;13.48;6.35;;;6.70;75.00;;;;;;4993572;28;20073;-52
2021/03/26 00:30:29;;;;;;;15.32;5.85;;;6.60;75.00;;;;;;4986972;28;20495;-55
2021/03/26 00:32:55;;;;;;;15.73;6.07;;;6.60;75.00;;;;;;4989559;28;20046;-53
2021/03/26 00:35:23;;;;;;;12.27;5.93;;;6.60;74.80;;;;;;4990371;28;20061;-55
2021/03/26 00:37:49;;;;;;;12.77;6.15;;;6.60;74.80;;;;;;4994694;28;20146;-53
2021/03/26 00:40:17;;;;;;;13.38;6.15;;;6.60;74.90;;;;;;4989658;28;20137;-52
2021/03/26 00:42:43;;;;;;;16.15;6.45;;;6.60;74.90;;;;;;4985644;28;20414;-51
2021/03/26 00:45:14;;;;;;;15.18;6.47;;;6.70;74.70;;;;;;4991661;28;20043;-53
2021/03/26 00:47:40;;;;;;;14.98;6.43;;;6.60;74.70;;;;;;4995844;28;20034;-51
2021/03/26 00:50:23;;;;;;;14.60;5.75;;;6.60;74.90;;;;;;4996170;28;20121;-52
2021/03/26 00:52:50;;;;;;;13.82;6.35;;;6.50;75.00;;;;;;4989897;28;20069;-54
2021/03/26 00:55:17;;;;;;;17.98;6.38;;;6.50;75.30;;;;;;4994792;28;20435;-54
2021/03/26 00:57:43;;;;;;;12.88;6.45;;;6.50;75.40;;;;;;4993345;28;20238;-49
2021/03/26 01:00:13;;;;;;;16.25;6.65;;;6.50;75.40;;;;;;4993022;28;20503;-51
2021/03/26 01:02:39;;;;;;;16.00;6.70;;;6.50;75.50;;;;;;4992654;28;20077;-49
2021/03/26 01:05:14;;;;;;;13.77;6.53;;;6.50;75.40;;;;;;4992303;28;20093;-52
2021/03/26 01:07:40;;;;;;;13.48;6.43;;;6.60;75.60;;;;;;4991232;28;20125;-53
2021/03/26 01:10:09;;;;;;;11.85;6.50;;;6.60;75.60;;;;;;4996260;28;20506;-50
2021/03/26 01:12:34;;;;;;;15.65;7.22;;;6.60;75.60;;;;;;4993636;28;20513;-52
2021/03/26 01:15:00;;;;;;;15.70;6.93;;;6.60;76.10;;;;;;4989812;28;20109;-52
2021/03/26 01:17:26;;;;;;;13.45;6.80;;;6.60;76.30;;;;;;4992018;28;20058;-54
2021/03/26 01:19:53;;;;;;;14.85;7.53;;;6.60;76.60;;;;;;4994546;28;20078;-53
2021/03/26 01:22:19;;;;;;;19.77;7.65;;;6.60;76.80;;;;;;4994412;28;20038;-52
2021/03/26 01:24:45;;;;;;;16.88;6.78;;;6.70;77.20;;;;;;4993288;28;20495;-53
2021/03/26 01:27:10;;;;;;;15.48;7.53;;;6.70;77.00;;;;;;4990200;28;20503;-53
2021/03/26 01:29:36;;;;;;;13.27;6.97;;;6.80;77.10;;;;;;4992542;28;20586;-52
2021/03/26 01:32:02;;;;;;;12.25;6.55;;;6.80;77.20;;;;;;4993891;28;20491;-51
2021/03/26 01:34:28;;;;;;;15.07;7.28;;;6.90;77.10;;;;;;4993388;28;20499;-52
2021/03/26 01:36:53;;;;;;;18.15;7.38;;;6.90;77.00;;;;;;4993445;28;20049;-50
2021/03/26 01:39:19;;;;;;;15.02;7.30;;;7.00;76.90;;;;;;4994614;28;20046;-53
2021/03/26 01:41:47;;;;;;;23.30;7.90;;;6.90;76.90;;;;;;4993512;28;20054;-52
2021/03/26 01:44:17;;;;;;;15.90;7.45;;;7.00;77.20;;;;;;4991167;28;20042;-52
2021/03/26 01:46:43;;;;;;;16.38;7.40;;;7.00;77.10;;;;;;4993388;28;20053;-54
2021/03/26 01:49:09;;;;;;;16.65;8.07;;;7.00;77.20;;;;;;4991834;28;20046;-52
2021/03/26 01:51:43;;;;;;;17.45;7.35;;;7.00;77.30;;;;;;4993751;28;20038;-51
2021/03/26 01:54:13;;;;;;;17.30;7.82;;;7.00;77.60;;;;;;4993546;28;20042;-53
2021/03/26 01:56:39;;;;;;;17.17;7.70;;;7.00;77.70;;;;;;4993058;28;20042;-55
2021/03/26 01:59:05;;;;;;;18.52;9.10;;;7.00;77.80;;;;;;4993530;28;20093;-54
2021/03/26 02:01:55;;;;;;;18.02;8.52;;;7.00;77.80;;;;;;4993373;28;20471;-52
2021/03/26 02:04:25;;;;;;;17.40;9.43;;;7.00;78.10;;;;;;4993556;28;20062;-54
2021/03/26 02:06:54;;;;;;;21.77;9.65;;;7.00;78.30;;;;;;4989803;28;20054;-54
2021/03/26 02:09:29;;;;;;;20.98;9.55;;;7.00;78.50;;;;;;4993288;28;20043;-52
2021/03/26 02:12:23;;;;;;;20.25;9.80;;;7.10;78.60;;;;;;4984041;28;20042;-52
2021/03/26 02:14:53;;;;;;;15.90;9.32;;;7.10;78.90;;;;;;4993977;28;20041;-54
2021/03/26 02:17:24;;;;;;;20.55;9.82;;;7.10;78.90;;;;;;4992267;28;20142;-53
2021/03/26 02:19:59;;;;;;;20.52;10.02;;;7.10;79.00;;;;;;4991455;28;20070;-52
2021/03/26 02:22:29;;;;;;;18.95;10.35;;;7.10;79.10;;;;;;4986713;28;20579;-52
2021/03/26 02:24:56;;;;;;;19.58;10.90;;;7.20;79.20;;;;;;4992822;28;20038;-50
2021/03/26 02:27:27;;;;;;;19.27;10.52;;;7.20;79.30;;;;;;4982658;28;20042;-52
2021/03/26 02:29:54;;;;;;;22.25;11.38;;;7.20;79.30;;;;;;4988205;28;20054;-53
2021/03/26 02:32:32;;;;;;;23.48;12.43;;;7.20;79.40;;;;;;4987437;28;20097;-54
2021/03/26 02:35:12;;;;;;;24.75;12.75;;;7.20;79.60;;;;;;4979218;28;20042;-53
2021/03/26 02:37:42;;;;;;;22.73;12.20;;;7.30;79.70;;;;;;4991233;28;20447;-51
2021/03/26 02:40:15;;;;;;;26.65;13.45;;;7.30;79.70;;;;;;4992983;28;20046;-54
2021/03/26 02:42:43;;;;;;;27.30;13.65;;;7.30;79.70;;;;;;4993105;28;20125;-54
2021/03/26 02:45:23;;;;;;;27.92;12.88;;;7.30;79.70;;;;;;4989738;28;20042;-52
2021/03/26 02:47:58;;;;;;;23.63;12.98;;;7.40;79.90;;;;;;4985790;28;20051;-55
2021/03/26 02:50:46;;;;;;;24.45;14.10;;;7.30;79.90;;;;;;4985140;28;20559;-55
2021/03/26 02:53:36;;;;;;;25.85;14.70;;;7.40;80.00;;;;;;4990096;28;20065;-55
2021/03/26 02:56:25;;;;;;;26.50;14.75;;;7.30;80.10;;;;;;4981176;28;20503;-54
2021/03/26 02:59:03;;;;;;;29.13;15.35;;;7.40;80.20;;;;;;4990024;28;20078;-55
2021/03/26 03:01:37;;;;;;;28.25;15.75;;;7.30;80.40;;;;;;4978234;28;20454;-55
2021/03/26 03:04:12;;;;;;;24.10;15.20;;;7.30;80.30;;;;;;4980549;28;20038;-53
2021/03/26 03:06:43;;;;;;;29.30;15.63;;;7.40;80.30;;;;;;4982639;28;20047;-52
2021/03/26 03:09:11;;;;;;;29.25;14.77;;;7.30;80.40;;;;;;4991825;28;20088;-49
2021/03/26 03:11:47;;;;;;;28.25;15.48;;;7.30;80.60;;;;;;4990223;28;20043;-52
2021/03/26 03:14:30;;;;;;;27.33;15.65;;;7.40;80.50;;;;;;4988822;28;20034;-49
2021/03/26 03:17:16;;;;;;;27.92;14.70;;;7.40;80.60;;;;;;4988263;28;20054;-51
2021/03/26 03:19:51;;;;;;;30.70;16.20;;;7.40;80.70;;;;;;4987447;28;20133;-50
2021/03/26 03:22:36;;;;;;;26.88;15.45;;;7.40;80.90;;;;;;4986452;28;20049;-52
2021/03/26 03:25:16;;;;;;;30.52;17.15;;;7.40;81.20;;;;;;4992283;28;20046;-49
2021/03/26 03:28:19;;;;;;;30.50;17.55;;;7.40;81.40;;;;;;4990131;28;20049;-51
2021/03/26 03:31:02;;;;;;;34.35;17.13;;;7.40;81.30;;;;;;4996192;28;20050;-49
2021/03/26 03:33:27;;;;;;;;;;;7.40;81.80;;;;;;4995736;28;20122;-51
2021/03/26 03:35:56;;;;;;;31.38;17.70;;;7.40;81.70;;;;;;4995043;28;19933;-55
2021/03/26 03:38:53;;;;;;;32.40;18.45;;;7.40;82.30;;;;;;4992443;28;20073;-51
2021/03/26 03:41:32;;;;;;;33.42;18.98;;;7.40;82.00;;;;;;4995338;28;20136;-50
2021/03/26 03:44:04;;;;;;;33.55;19.30;;;7.40;82.30;;;;;;4996186;28;20046;-51
2021/03/26 03:46:50;;;;;;;38.25;19.75;;;7.40;82.50;;;;;;4994771;28;20101;-51
2021/03/26 03:49:53;;;;;;;31.83;20.45;;;7.40;82.60;;;;;;4994198;28;20388;-52
2021/03/26 03:52:36;;;;;;;31.30;20.33;;;7.40;83.10;;;;;;4986395;28;20507;-49
2021/03/26 03:55:10;;;;;;;34.72;20.10;;;7.40;83.10;;;;;;4987762;28;20042;-52
2021/03/26 03:57:42;;;;;;;31.70;19.98;;;7.50;83.30;;;;;;4991281;28;20035;-53
2021/03/26 04:00:23;;;;;;;31.50;20.45;;;7.50;83.20;;;;;;4989305;28;20037;-53
2021/03/26 04:03:02;;;;;;;39.60;21.60;;;7.50;83.50;;;;;;4988568;28;20089;-52
2021/03/26 04:05:37;;;;;;;30.33;20.05;;;7.50;83.80;;;;;;4989559;28;20146;-53
2021/03/26 04:08:19;;;;;;;40.42;22.20;;;7.50;83.70;;;;;;4992809;28;20133;-50
2021/03/26 04:10:51;;;;;;;35.67;21.27;;;7.50;83.90;;;;;;4985218;28;20038;-52
2021/03/26 04:13:26;;;;;;;32.25;21.10;;;7.50;83.90;;;;;;4990656;28;20518;-49
2021/03/26 04:15:58;;;;;;;40.38;22.33;;;7.50;84.00;;;;;;4987411;28;20527;-55
2021/03/26 04:18:47;;;;;;;40.50;23.30;;;7.50;84.20;;;;;;4989846;28;20077;-53
2021/03/26 04:21:24;;;;;;;36.97;22.13;;;7.60;84.30;;;;;;4989616;28;20154;-49
2021/03/26 04:24:06;;;;;;;34.22;20.88;;;7.60;84.70;;;;;;4990731;28;20038;-49
2021/03/26 04:26:50;;;;;;;33.63;21.23;;;7.60;84.50;;;;;;5004218;28;20116;-52
2021/03/26 04:29:28;;;;;;;38.13;22.88;;;7.60;84.30;;;;;;4988615;28;20045;-51
2021/03/26 04:31:59;;;;;;;34.00;22.23;;;7.70;84.40;;;;;;4994111;28;20042;-53
2021/03/26 04:34:26;;;;;;;33.73;22.43;;;7.70;84.60;;;;;;4991313;28;20092;-52
2021/03/26 04:37:12;;;;;;;35.67;22.30;;;7.70;84.40;;;;;;4972719;28;20804;-53
2021/03/26 04:40:07;;;;;;;38.42;22.20;;;7.70;84.70;;;;;;4990440;28;20050;-53
2021/03/26 04:42:57;;;;;;;37.92;22.00;;;7.80;84.40;;;;;;4984993;28;20046;-54
2021/03/26 04:45:41;;;;;;;34.22;21.25;;;7.80;84.60;;;;;;4986481;28;20561;-53
2021/03/26 04:48:10;;;;;;;35.35;21.33;;;7.80;84.40;;;;;;4986920;28;20042;-54
2021/03/26 04:50:41;;;;;;;34.28;21.02;;;7.80;84.50;;;;;;4993862;28;20081;-52
2021/03/26 04:53:14;;;;;;;40.97;21.98;;;7.70;84.60;;;;;;4991377;28;20427;-52
2021/03/26 04:55:42;;;;;;;;;;;7.70;84.60;;;;;;4991233;28;20100;-51
2021/03/26 04:58:19;;;;;;;32.08;19.85;;;7.70;84.60;;;;;;4993313;28;19925;-51
2021/03/26 05:01:01;;;;;;;36.50;20.15;;;7.80;84.70;;;;;;4991535;28;20073;-54
2021/03/26 05:03:34;;;;;;;34.63;20.23;;;7.80;84.50;;;;;;4993332;28;20510;-52
2021/03/26 05:06:21;;;;;;;33.45;19.67;;;7.70;84.40;;;;;;4987733;28;20090;-52
2021/03/26 05:08:53;;;;;;;32.15;18.80;;;7.80;84.30;;;;;;4989987;28;20113;-53
2021/03/26 05:11:20;;;;;;;34.05;18.88;;;7.90;84.50;;;;;;4993160;28;20042;-55
2021/03/26 05:13:55;;;;;;;32.28;19.55;;;7.90;84.20;;;;;;4979491;28;20115;-52
2021/03/26 05:16:32;;;;;;;36.25;20.35;;;7.80;84.20;;;;;;4988231;28;20047;-52
2021/03/26 05:19:03;;;;;;;36.72;20.35;;;7.80;84.40;;;;;;4993063;28;20070;-54
2021/03/26 05:21:46;;;;;;;37.23;21.50;;;7.90;84.60;;;;;;4989050;28;20510;-54
2021/03/26 05:24:32;;;;;;;;;;;7.90;84.80;;;;;;4993570;28;20057;-55
2021/03/26 05:26:59;;;;;;;34.25;21.90;;;7.90;84.90;;;;;;4982253;28;19925;-52
2021/03/26 05:29:25;;;;;;;37.40;23.25;;;7.90;85.30;;;;;;4992691;28;20097;-51
2021/03/26 05:32:13;;;;;;;39.85;24.15;;;8.00;86.10;;;;;;4992394;28;20030;-54
2021/03/26 05:34:45;;;;;;;42.75;24.13;;;7.90;86.50;;;;;;4985252;28;20391;-54
2021/03/26 05:37:56;;;;;;;46.90;27.02;;;8.00;87.40;;;;;;4985418;28;20528;-53
2021/03/26 05:40:42;;;;;;;46.47;27.00;;;8.00;88.40;;;;;;4985201;28;20070;-52
2021/03/26 05:43:29;;;;;;;42.70;25.58;;;7.90;88.30;;;;;;4989298;28;20092;-52
2021/03/26 05:46:20;;;;;;;44.75;26.00;;;7.90;88.70;;;;;;4989086;28;20046;-52
2021/03/26 05:49:25;;;;;;;47.22;25.75;;;7.90;89.10;;;;;;5002120;28;20392;-53
2021/03/26 05:52:09;;;;;;;43.70;27.27;;;7.90;89.50;;;;;;4991714;28;20411;-52
2021/03/26 05:55:01;;;;;;;48.00;27.27;;;7.90;89.20;;;;;;4992953;28;20049;-50
2021/03/26 05:57:54;;;;;;;46.10;26.63;;;7.90;89.80;;;;;;4991229;28;20494;-51
2021/03/26 06:00:50;;;;;;;45.92;28.08;;;7.90;89.70;;;;;;4992092;28;20337;-53
2021/03/26 06:03:41;;;;;;;45.83;26.65;;;7.90;90.00;;;;;;4992618;28;20097;-51
2021/03/26 06:06:22;;;;;;;47.40;27.75;;;7.90;90.10;;;;;;4982844;28;20264;-53
2021/03/26 06:09:36;;;;;;;47.40;27.77;;;7.80;90.20;;;;;;4982442;28;20053;-54
2021/03/26 06:12:40;;;;;;;44.22;27.38;;;7.90;90.30;;;;;;4986530;28;20082;-51
2021/03/26 06:15:18;;;;;;;;;;;7.90;90.30;;;;;;4985903;28;20450;-53
2021/03/26 06:18:03;;;;;;;45.42;27.05;;;7.90;90.50;;;;;;4987020;28;19921;-49
2021/03/26 06:20:50;;;;;;;51.65;29.27;;;7.90;90.50;;;;;;4982448;28;20039;-53
2021/03/26 06:23:53;;;;;;;46.83;27.90;;;7.90;90.40;;;;;;4986818;28;20122;-50
2021/03/26 06:26:41;;;;;;;48.90;28.30;;;7.90;90.60;;;;;;4988481;28;20045;-50
2021/03/26 06:29:58;;;;;;;46.50;27.33;;;8.00;90.70;;;;;;4990983;28;20038;-51
2021/03/26 06:32:54;;;;;;;50.55;28.42;;;7.90;90.60;;;;;;4964117;28;20395;-49
2021/03/26 06:35:38;;;;;;;53.42;29.50;;;7.90;90.70;;;;;;4982334;28;20034;-50
2021/03/26 06:38:37;;;;;;;49.83;28.83;;;8.00;90.90;;;;;;4976865;28;20418;-50
2021/03/26 06:41:22;;;;;;;52.08;29.88;;;8.00;91.00;;;;;;4976884;28;20140;-50
2021/03/26 06:44:16;;;;;;;55.78;29.45;;;7.90;90.90;;;;;;4989010;28;20452;-50
2021/03/26 06:46:54;;;;;;;47.97;28.77;;;7.90;90.90;;;;;;4975735;28;20043;-52
2021/03/26 06:49:57;;;;;;;48.95;27.52;;;8.00;91.00;;;;;;4992118;28;20045;-53
2021/03/26 06:52:25;;;;;;;;;;;8.00;90.90;;;;;;4978768;28;20085;-49
2021/03/26 06:55:05;;;;;;;50.33;29.17;;;8.00;91.20;;;;;;4990381;28;19918;-50
2021/03/26 06:57:56;;;;;;;47.67;28.77;;;8.00;91.00;;;;;;4977805;28;20069;-52
2021/03/26 07:00:55;;;;;;;45.35;28.40;;;8.00;91.00;;;;;;4975357;28;20038;-48
2021/03/26 07:03:45;;;;;;;48.13;27.88;;;8.00;90.90;;;;;;4976699;28;20050;-48
2021/03/26 07:06:34;;;;;;;50.40;27.98;;;8.00;90.90;;;;;;4974844;28;20066;-49
2021/03/26 07:09:33;;;;;;;48.25;27.33;;;8.10;90.90;;;;;;4984798;28;20038;-53
2021/03/26 07:12:07;;;;;;;46.22;28.02;;;8.10;91.00;;;;;;5005306;28;20048;-50
2021/03/26 07:14:45;;;;;;;46.13;27.60;;;8.10;91.00;;;;;;4986746;28;20038;-50
2021/03/26 07:17:20;;;;;;;48.88;27.98;;;8.10;90.90;;;;;;5000999;28;20046;-51
2021/03/26 07:20:01;;;;;;;49.30;28.10;;;8.10;90.90;;;;;;4989608;28;20046;-50
2021/03/26 07:23:05;;;;;;;48.70;28.17;;;8.20;90.80;;;;;;4981118;28;20054;-50
2021/03/26 07:26:03;;;;;;;47.78;27.67;;;8.20;90.80;;;;;;4977067;28;20206;-49
2021/03/26 07:28:56;;;;;;;47.17;26.55;;;8.20;90.90;;;;;;4987670;28;20101;-50
2021/03/26 07:31:40;;;;;;;;;;;8.20;90.80;;;;;;5004893;28;20039;-49
2021/03/26 07:34:20;;;;;;;49.15;28.30;;;8.30;90.60;;;;;;4991046;28;20016;-50
2021/03/26 07:37:08;;;;;;;47.08;27.45;;;8.30;90.60;;;;;;4990564;28;20066;-51
2021/03/26 07:39:42;;;;;;;46.88;27.60;;;8.40;90.60;;;;;;4982226;28;20053;-52
2021/03/26 07:42:30;;;;;;;48.70;28.00;;;8.40;90.70;;;;;;4990451;28;20038;-53
2021/03/26 07:45:35;;;;;;;51.45;28.13;;;8.50;90.60;;;;;;4990176;28;20035;-52
2021/03/26 07:48:06;;;;;;;44.97;25.95;;;8.50;90.60;;;;;;4984904;28;20062;-50
2021/03/26 07:50:57;;;;;;;43.45;25.85;;;8.60;90.60;;;;;;4991465;28;20057;-49
2021/03/26 07:53:33;;;;;;;45.42;26.92;;;8.60;90.20;;;;;;4989436;28;20050;-50
2021/03/26 07:56:29;;;;;;;45.58;26.08;;;8.70;90.20;;;;;;4978569;28;20056;-53
2021/03/26 07:59:25;;;;;;;43.25;25.63;;;8.70;90.10;;;;;;4990507;28;20447;-53
2021/03/26 08:02:03;;;;;;;46.92;26.67;;;8.70;90.10;;;;;;4991393;28;20503;-50
2021/03/26 08:04:45;;;;;;;42.28;25.48;;;8.70;90.10;;;;;;4978478;28;20129;-51
2021/03/26 08:07:54;;;;;;;42.60;25.73;;;8.80;90.10;;;;;;4989802;28;20049;-50
2021/03/26 08:10:47;;;;;;;41.38;24.02;;;8.90;89.60;;;;;;4958585;28;20105;-53
2021/03/26 08:13:28;;;;;;;43.35;24.77;;;9.00;89.10;;;;;;4972268;28;20201;-52
2021/03/26 08:16:03;;;;;;;40.83;25.90;;;8.90;89.40;;;;;;4988839;28;20069;-51
2021/03/26 08:18:36;;;;;;;45.50;24.33;;;9.00;89.60;;;;;;4985361;28;20062;-49
2021/03/26 08:21:26;;;;;;;43.13;24.92;;;9.00;89.30;;;;;;4994537;28;20399;-53
2021/03/26 08:24:34;;;;;;;40.40;25.25;;;9.10;89.40;;;;;;4994589;28;20047;-49
2021/03/26 08:27:54;;;;;;;43.05;25.65;;;9.10;89.20;;;;;;4982972;28;20735;-50
2021/03/26 08:30:38;;;;;;;43.00;25.10;;;9.20;88.90;;;;;;4927885;29;20074;-50
2021/03/26 08:33:41;;;;;;;42.10;25.35;;;9.30;88.90;;;;;;4995049;28;20406;-50
2021/03/26 08:36:15;;;;;;;47.67;24.02;;;9.40;88.60;;;;;;4989049;28;20046;-53
2021/03/26 08:39:14;;;;;;;46.08;26.13;;;9.50;87.70;;;;;;4992477;28;20038;-52
2021/03/26 08:41:51;;;;;;;37.92;24.85;;;9.60;87.40;;;;;;4992131;28;20049;-52
2021/03/26 08:44:19;;;;;;;44.80;24.92;;;9.60;87.60;;;;;;5004784;28;20560;-52
2021/03/26 08:46:51;;;;;;;43.75;25.83;;;9.70;86.80;;;;;;4993677;28;20490;-52
2021/03/26 08:50:15;;;;;;;40.25;24.17;;;9.70;87.20;;;;;;4993318;28;20431;-49
2021/03/26 08:53:30;;;;;;;45.78;26.33;;;9.80;86.80;;;;;;4970918;28;20069;-50
2021/03/26 08:56:12;;;;;;;39.90;24.38;;;9.90;86.70;;;;;;4993712;28;20038;-53
2021/03/26 08:59:03;;;;;;;39.17;24.38;;;10.00;86.20;;;;;;4993485;28;20075;-53
2021/03/26 09:01:54;;;;;;;39.35;24.27;;;10.10;85.80;;;;;;4993918;28;20050;-52
2021/03/26 09:04:51;;;;;;;40.75;24.00;;;10.20;86.10;;;;;;4987386;28;20487;-50
2021/03/26 09:07:28;;;;;;;43.80;24.98;;;10.30;84.60;;;;;;4986447;28;20511;-50
2021/03/26 09:10:15;;;;;;;37.97;22.50;;;10.40;84.60;;;;;;4982086;28;20113;-52
2021/03/26 09:12:52;;;;;;;38.97;23.60;;;10.50;83.10;;;;;;4993014;28;20050;-52
2021/03/26 09:15:45;;;;;;;39.20;23.70;;;10.50;83.70;;;;;;4993925;28;20481;-50
2021/03/26 09:18:37;;;;;;;43.03;24.13;;;10.60;83.40;;;;;;4984690;28;20405;-50
2021/03/26 09:21:45;;;;;;;37.28;23.00;;;10.70;82.80;;;;;;4989252;28;20063;-53
2021/03/26 09:24:45;;;;;;;40.00;22.52;;;10.80;83.00;;;;;;4974563;28;20190;-53
2021/03/26 09:27:32;;;;;;;42.45;24.33;;;10.90;82.10;;;;;;4986851;28;20524;-53
2021/03/26 09:30:01;;;;;;;35.58;22.35;;;11.10;81.80;;;;;;4980151;28;20050;-49
2021/03/26 09:32:31;;;;;;;36.30;22.55;;;11.30;81.70;;;;;;4972261;28;20051;-52
2021/03/26 09:35:01;;;;;;;38.88;23.13;;;11.50;80.40;;;;;;4975666;28;20053;-51
2021/03/26 09:37:59;;;;;;;37.35;23.38;;;11.60;80.90;;;;;;4991650;28;20049;-52
2021/03/26 09:40:46;;;;;;;36.80;20.02;;;11.70;79.80;;;;;;4987001;28;20038;-54
2021/03/26 09:43:18;;;;;;;34.00;19.98;;;11.90;79.70;;;;;;4991104;28;20042;-51
2021/03/26 09:46:00;;;;;;;32.00;18.98;;;12.10;79.80;;;;;;4992427;28;20042;-52
2021/03/26 09:48:41;;;;;;;35.35;20.40;;;12.30;77.80;;;;;;4991350;28;20414;-50
2021/03/26 09:51:27;;;;;;;29.60;19.00;;;12.40;77.70;;;;;;4990175;28;20499;-49
2021/03/26 09:54:03;;;;;;;26.98;17.25;;;12.60;76.30;;;;;;4988619;28;20116;-49
2021/03/26 09:56:36;;;;;;;28.02;18.48;;;12.70;75.70;;;;;;4990904;28;20039;-52
2021/03/26 09:59:27;;;;;;;29.85;16.38;;;12.80;75.20;;;;;;4992301;28;20050;-52
2021/03/26 10:02:12;;;;;;;25.75;15.45;;;12.90;74.80;;;;;;4992751;28;20050;-53
2021/03/26 10:04:45;;;;;;;23.95;13.65;;;13.00;73.50;;;;;;4985876;28;20049;-49
2021/03/26 10:07:35;;;;;;;20.60;12.27;;;13.10;71.10;;;;;;4991126;28;20042;-50
2021/03/26 10:13:14;;;;;;;20.98;13.55;;;13.30;70.50;;;;;;4981139;28;20515;-53
2021/03/26 10:15:47;;;;;;;23.65;13.55;;;13.40;70.50;;;;;;4991478;28;20050;-52
2021/03/26 10:18:21;;;;;;;25.52;14.43;;;13.50;70.60;;;;;;4991301;28;20602;-51
2021/03/26 10:21:04;;;;;;;24.73;13.70;;;13.50;70.90;;;;;;4991314;28;20054;-52
2021/03/26 10:23:34;;;;;;;23.05;14.57;;;13.70;69.90;;;;;;4991983;28;20124;-52
2021/03/26 10:26:18;;;;;;;20.30;12.40;;;13.70;71.10;;;;;;4989573;28;20038;-52
2021/03/26 10:28:44;;;;;;;20.83;12.63;;;13.80;69.30;;;;;;4986861;28;20046;-49
2021/03/26 10:31:14;;;;;;;22.50;10.82;;;14.00;66.70;;;;;;4981796;28;20404;-53
2021/03/26 10:33:51;;;;;;;21.88;11.52;;;14.00;66.20;;;;;;4988559;28;20046;-53
2021/03/26 10:36:25;;;;;;;16.90;11.07;;;14.10;67.30;;;;;;4982278;28;20133;-54
2021/03/26 10:39:27;;;;;;;20.08;10.63;;;14.20;65.60;;;;;;4981519;28;20057;-53
2021/03/26 10:42:31;;;;;;;19.63;11.40;;;14.30;64.40;;;;;;4978599;28;20052;-52
2021/03/26 10:45:03;;;;;;;20.42;12.10;;;14.30;63.60;;;;;;4982232;28;20506;-52
2021/03/26 10:47:40;;;;;;;19.63;11.50;;;14.30;64.80;;;;;;4976436;28;20041;-52
2021/03/26 10:50:12;;;;;;;22.52;12.00;;;14.40;63.40;;;;;;4976514;28;20504;-52
2021/03/26 10:52:44;;;;;;;19.67;11.15;;;14.40;65.10;;;;;;4978026;28;20093;-52
2021/03/26 10:55:13;;;;;;;21.40;11.13;;;14.60;62.90;;;;;;4976422;28;20122;-53
2021/03/26 10:57:57;;;;;;;19.25;12.00;;;14.50;62.10;;;;;;4974235;28;20046;-53
2021/03/26 11:00:25;;;;;;;21.08;11.73;;;14.60;63.20;;;;;;4973944;28;20043;-53
2021/03/26 11:02:57;;;;;;;20.83;10.27;;;14.70;62.00;;;;;;4977904;28;20035;-52
2021/03/26 11:05:57;;;;;;;20.90;10.82;;;14.80;59.80;;;;;;4977985;28;20050;-54
2021/03/26 11:08:30;;;;;;;19.27;10.23;;;14.70;60.30;;;;;;4981556;28;20392;-54
2021/03/26 11:11:10;;;;;;;21.27;10.02;;;14.80;60.80;;;;;;4990636;28;20038;-52
2021/03/26 11:14:06;;;;;;;17.88;10.57;;;14.90;60.60;;;;;;4986299;28;20026;-54
2021/03/26 11:17:00;;;;;;;16.90;10.20;;;14.80;59.90;;;;;;4984976;28;20074;-52
2021/03/26 11:19:42;;;;;;;16.27;11.02;;;14.70;59.50;;;;;;4981450;28;20046;-51
2021/03/26 11:22:35;;;;;;;15.85;10.52;;;14.70;60.30;;;;;;4983062;28;20038;-53
2021/03/26 11:25:08;;;;;;;21.67;10.57;;;14.80;59.60;;;;;;4985582;28;20050;-55
2021/03/26 11:27:42;;;;;;;17.33;10.68;;;14.80;59.80;;;;;;4987774;28;20403;-53
2021/03/26 11:30:33;;;;;;;18.23;10.68;;;14.90;60.90;;;;;;4991361;28;20046;-54
2021/03/26 11:33:09;;;;;;;21.70;10.02;;;14.90;61.80;;;;;;5003700;28;20034;-53
2021/03/26 11:35:39;;;;;;;15.73;9.02;;;15.00;59.40;;;;;;4985854;28;20038;-52
2021/03/26 11:38:18;;;;;;;17.33;8.80;;;14.90;58.00;;;;;;4977832;28;20048;-53
2021/03/26 11:40:54;;;;;;;15.18;8.63;;;14.80;58.30;;;;;;4974812;28;20057;-52
2021/03/26 11:43:24;;;;;;;16.50;8.18;;;14.60;59.50;;;;;;4988763;28;20046;-52
2021/03/26 11:45:56;;;;;;;15.88;7.80;;;14.60;59.70;;;;;;4989549;28;20039;-51
2021/03/26 11:48:37;;;;;;;13.50;7.38;;;14.70;59.00;;;;;;5000984;28;20046;-54
2021/03/26 11:51:20;;;;;;;13.73;6.63;;;14.90;57.60;;;;;;4992893;28;20054;-54
2021/03/26 11:53:57;;;;;;;11.93;6.88;;;14.90;58.40;;;;;;4990891;28;20057;-53
2021/03/26 11:56:25;;;;;;;12.95;5.07;;;15.00;58.00;;;;;;4992357;28;20050;-50
2021/03/26 11:59:18;;;;;;;11.23;5.40;;;14.90;55.50;;;;;;4994766;28;20090;-53
2021/03/26 12:01:53;;;;;;;13.25;5.68;;;14.90;56.00;;;;;;4990559;28;20400;-50
2021/03/26 12:04:46;;;;;;;11.60;4.80;;;14.90;56.50;;;;;;4992508;28;20073;-53
2021/03/26 12:07:17;;;;;;;10.68;5.60;;;14.90;56.90;;;;;;4981027;28;20054;-53
2021/03/26 12:10:12;;;;;;;10.75;5.18;;;14.80;57.10;;;;;;4990329;28;20484;-52
2021/03/26 12:12:44;;;;;;;12.00;5.25;;;14.60;57.80;;;;;;4991803;28;20034;-52
2021/03/26 12:15:22;;;;;;;;;;;14.60;58.30;;;;;;4994944;28;20081;-51
2021/03/26 12:18:05;;;;;;;13.45;4.90;;;14.60;58.70;;;;;;4991097;28;19918;-53
2021/03/26 12:20:37;;;;;;;11.02;5.28;;;14.80;57.90;;;;;;4994442;28;20046;-53
2021/03/26 12:23:17;;;;;;;10.67;5.30;;;14.80;58.50;;;;;;4993532;28;20618;-53
2021/03/26 12:25:57;;;;;;;10.40;5.68;;;14.80;57.60;;;;;;4980970;28;20058;-52
2021/03/26 12:28:42;;;;;;;11.20;5.05;;;14.70;57.90;;;;;;4981528;28;20562;-54
2021/03/26 12:31:35;;;;;;;14.30;5.10;;;14.60;58.40;;;;;;4971777;28;20159;-54
2021/03/26 12:34:06;;;;;;;11.30;4.82;;;14.60;57.30;;;;;;4993907;28;20046;-53
2021/03/26 12:36:40;;;;;;;11.73;5.05;;;14.70;57.60;;;;;;4993273;28;20038;-53
2021/03/26 12:39:21;;;;;;;12.30;4.43;;;14.70;57.60;;;;;;4990826;28;20126;-52
2021/03/26 12:41:53;;;;;;;10.98;4.53;;;14.60;55.50;;;;;;4994839;28;20133;-53
2021/03/26 12:44:26;;;;;;;9.45;4.45;;;14.60;56.40;;;;;;4992880;28;20133;-53
2021/03/26 12:47:11;;;;;;;11.10;4.40;;;14.60;57.40;;;;;;4989947;28;20105;-53
2021/03/26 12:50:06;;;;;;;9.93;4.40;;;14.60;58.00;;;;;;4993394;28;20034;-54
2021/03/26 12:52:50;;;;;;;9.50;4.00;;;14.80;57.30;;;;;;4992697;28;20065;-51
2021/03/26 12:55:22;;;;;;;9.73;4.07;;;15.00;55.80;;;;;;4974128;28;20042;-51
2021/03/26 12:58:38;;;;;;;8.75;3.95;;;15.10;55.50;;;;;;4988117;28;20043;-54
2021/03/26 13:01:15;;;;;;;11.40;3.80;;;15.20;56.10;;;;;;4971148;28;20133;-53
2021/03/26 13:03:53;;;;;;;8.73;4.47;;;15.30;57.00;;;;;;4984765;28;20111;-50
2021/03/26 13:06:33;;;;;;;6.72;3.85;;;15.40;55.60;;;;;;4981848;28;20045;-50
2021/03/26 13:09:26;;;;;;;8.23;3.95;;;15.50;56.20;;;;;;4987946;28;20047;-50
2021/03/26 13:12:05;;;;;;;9.60;3.85;;;15.60;54.90;;;;;;4987828;28;20117;-52
2021/03/26 13:14:39;;;;;;;9.23;4.25;;;15.70;52.80;;;;;;4989054;28;20046;-53
2021/03/26 13:17:16;;;;;;;8.48;3.92;;;15.60;53.50;;;;;;4986382;28;20054;-54
2021/03/26 13:19:42;;;;;;;9.35;4.13;;;15.40;53.30;;;;;;4987868;28;20053;-53
2021/03/26 13:22:10;;;;;;;8.73;4.13;;;15.20;54.60;;;;;;4980961;28;20034;-51
2021/03/26 13:24:51;;;;;;;11.35;4.50;;;15.20;55.90;;;;;;4991130;28;20498;-53
2021/03/26 13:27:18;;;;;;;9.90;4.60;;;15.20;54.90;;;;;;4985445;28;20483;-53
2021/03/26 13:29:57;;;;;;;9.10;4.88;;;15.10;55.30;;;;;;4992872;28;20125;-52
2021/03/26 13:32:27;;;;;;;9.68;3.85;;;15.00;55.50;;;;;;4978472;28;20046;-50
2021/03/26 13:34:58;;;;;;;7.95;4.18;;;14.90;56.10;;;;;;4978039;28;20046;-51
2021/03/26 13:37:30;;;;;;;8.50;4.10;;;14.90;56.00;;;;;;4979503;28;20062;-53
2021/03/26 13:40:17;;;;;;;9.93;4.43;;;14.90;56.00;;;;;;4981700;28;20050;-51
2021/03/26 13:43:04;;;;;;;10.65;3.92;;;14.90;56.90;;;;;;4979687;28;20093;-51
2021/03/26 13:45:32;;;;;;;8.38;4.20;;;15.00;57.30;;;;;;4981510;28;20043;-53
2021/03/26 13:48:09;;;;;;;7.60;4.20;;;15.10;56.00;;;;;;4981457;28;20049;-51